MUC | München Airways

 METAR UND TAF INFORMATION

METAR FOR NZAA
ADDS - METARS form results

(1358 UTC 24 January 2019)
Data provider http://aviationweather.gov/metar/data/
 
METAR text: NZAA 241330Z AUTO 19005KT 9999 FEW041/// 17/15 Q1015 NOSIG
Conditions at: NZAA (AUCKLAND INTL AR, NZ) observed 1330 UTC 24 January 2019
Temperature: 17.0°C (63°F)
Dewpoint: 15.0°C (59°F) [RH = 88%]
Pressure (altimeter): 29.97 inches Hg (1015.0 mb)
Winds: from the S (190 degrees) at 6 MPH (5 knots; 2.6 m/s)
Visibility: 6 or more miles (10+ km)
Ceiling: at least 12,000 feet AGL
Clouds: few clouds at 4100 feet AGL
Weather: no significant weather observed at this time

METAR text: NZAA 241300Z AUTO 20006KT 9999 NCD 17/15 Q1015 NOSIG
Conditions at: NZAA (AUCKLAND INTL AR, NZ) observed 1300 UTC 24 January 2019
Temperature: 17.0°C (63°F)
Dewpoint: 15.0°C (59°F) [RH = 88%]
Pressure (altimeter): 29.97 inches Hg (1015.0 mb)
Winds: from the SSW (200 degrees) at 7 MPH (6 knots; 3.1 m/s)
Visibility: 6 or more miles (10+ km)
Ceiling: at least 12,000 feet AGL
Clouds: sky clear below 12,000 feet AGL
Weather: no significant weather observed at this time

Forecast for: NZAA (AUCKLAND INTL AR, NZ)
Text: TAF NZAA 241100Z 2412/2512 14005KT 9999 -SHRA BKN025
Forecast period: 1200 to 2300 UTC 24 January 2019
Forecast type: FROM: standard forecast or significant change
Winds: from the SE (140 degrees) at 6 MPH (5 knots; 2.6 m/s)
Visibility: 6 or more miles 10+ km)
Ceiling: 2500 feet AGL
Clouds: broken clouds at 2500 feet AGL
Weather: -SHRA  (light rain showers)
Text: BECMG 2423/2501 22010KT
Forecast period: 2300 UTC 24 January 2019 to 1200 UTC 25 January 2019
Forecast type: BECOMING: Conditions expected to become as follows by 0100 UTC 25 January 2019
Winds: from the SW (220 degrees) at 12 MPH (10 knots; 5.1 m/s)
Visibility: 6 or more miles 10+ km)
Ceiling: 2500 feet AGL
Clouds: broken clouds at 2500 feet AGL
Weather: -SHRA  (light rain showers)

 FLUGHAFENKARTE

 RUNWAY INFORMATION
Runway 05R Runway length 11926 ft Runway width 148 ft
Runway elevation 15 ft Runway displaced threshold 1125 ft Runway heading 72
Runway 23L Runway length 11926 ft Runway width 148 ft
Runway elevation 23 ft Runway displaced threshold 0 ft Runway heading 252
Runway 05L Runway length 10197 ft Runway width 148 ft
Runway elevation 15 ft Runway displaced threshold 1148 ft Runway heading 71
Runway 23R Runway length 10197 ft Runway width 148 ft
Runway elevation 22 ft Runway displaced threshold 1542 ft Runway heading 251

 AIRPORT FREQUENCIES
Type APP Name APP Frequency 124.3 MHZ
Type ATIS Name ATIS Frequency 127.8 MHZ
Type CLD Name CLNC DEL Frequency 128.2 MHZ
Type GND Name GND Frequency 121.9 MHZ
Type TWR Name TWR Frequency 118.7 MHZ

 AIRPORT NEAR NAVIGATION AIDS
Type VOR-DME Name Auckland Frequency 114800 KHZ
Type NDB Name Whitford Frequency 334 KHZ
Type NDB Name Westpoint Frequency 398 KHZ